Genco Loire — V7GN8 — position and weather

sailwx.info

Track history (hours):
 
Tides and Currents Weather Stations Pressure Air Temp Water Temp Dewpoint Dewpoint Depression Visibility Wind Speed Wind Dir Waves Ship Positions

Genco Loire

Last reported at 2018-Jun-16 21:29 UTC. Time now 2018-Jun-25 04:29 UTC.
Position N 31°49' E 034°36'.
Warning: this ship's position is 8 days out of date.

Length 190 m; draft 6.4 m.

Type: Cargo ship. MMSI: 538002760.

Date/timePositionNaut miles runAvg speedWind from/ knotsBaromVisibWave heightAir tempDewpointWater temp
2018-Jun-16 21:29N 31°49' E 034°36'0 0.0
2018-Jun-16 20:59N 31°49' E 034°36'0 0.1
2018-Jun-16 20:29N 31°49' E 034°36'0 0.0
2018-Jun-16 16:35N 31°49' E 034°36'0 0.1
2018-Jun-16 16:29N 31°49' E 034°36'0 0.0
2018-Jun-16 15:59N 31°49' E 034°36'0 0.0
2018-Jun-16 15:11N 31°49' E 034°36'0 0.0
2018-Jun-16 14:53N 31°49' E 034°36'0 0.3
2018-Jun-16 14:23N 31°49' E 034°36'0 0.0
2018-Jun-16 13:59N 31°49' E 034°36'0 0.1
2018-Jun-16 13:29N 31°49' E 034°36'0 0.0
2018-Jun-16 12:59N 31°49' E 034°36'0 0.0
2018-Jun-16 12:23N 31°49' E 034°36'0 0.1
2018-Jun-16 11:59N 31°49' E 034°36'0 0.0
2018-Jun-16 11:23N 31°49' E 034°36'0 0.0
2018-Jun-16 10:59N 31°49' E 034°36'0 0.0
2018-Jun-16 10:29N 31°49' E 034°36'0 0.1
2018-Jun-16 09:56N 31°49' E 034°36'0 0.0
2018-Jun-16 09:29N 31°49' E 034°36'0 0.0
2018-Jun-16 08:59N 31°49' E 034°36'0 0.0
2018-Jun-16 00:59N 31°49' E 034°36'0 0.0
2018-Jun-15 20:41N 31°49' E 034°36'0 0.0
2018-Jun-15 20:23N 31°49' E 034°36'0 0.0
2018-Jun-15 18:19N 31°49' E 034°36'0 0.0
2018-Jun-15 17:46N 31°49' E 034°36'0 0.1
2018-Jun-15 17:29N 31°49' E 034°36'0 0.0
2018-Jun-15 16:58N 31°49' E 034°36'0 0.0
2018-Jun-15 16:26N 31°49' E 034°36'0 0.0
2018-Jun-15 15:37N 31°49' E 034°36'0 0.0
2018-Jun-15 15:28N 31°49' E 034°36'0 0.0
2018-Jun-15 14:16N 31°49' E 034°36'0 0.0
2018-Jun-15 13:46N 31°49' E 034°36'0 0.0
2018-Jun-15 12:34N 31°49' E 034°36'0 0.1
2018-Jun-15 12:28N 31°49' E 034°36'0 0.0
2018-Jun-15 11:58N 31°49' E 034°36'0 0.1
2018-Jun-15 11:28N 31°49' E 034°36'0 0.0
2018-Jun-15 10:58N 31°49' E 034°36'0 0.0
2018-Jun-15 10:17N 31°49' E 034°36'0 0.0
2018-Jun-15 09:10N 31°49' E 034°36'0 0.0
2018-Jun-15 08:58N 31°49' E 034°36'0 0.0
2018-Jun-15 08:28N 31°49' E 034°36'0 0.0
2018-Jun-15 06:46N 31°49' E 034°36'2 0.1
2018-Jun-14 12:07N 31°51' E 034°37'0 0.8
2018-Jun-14 12:00N 31°51' E 034°37'0 0.2
2018-Jun-14 10:57N 31°51' E 034°37'0 0.1
2018-Jun-14 08:11N 31°52' E 034°38'0 1.8
2018-Jun-14 07:59N 31°52' E 034°38'  
2018-Jun-10 14:52N 32°12' E 031°25'1 1.1
2018-Jun-10 14:00N 32°13' E 031°24'4 4.3
2018-Jun-10 13:02N 32°09' E 031°27'011.1
2018-Jun-10 13:00N 32°09' E 031°27'611.1
2018-Jun-10 12:30N 32°06' E 031°33'610.9
2018-Jun-10 11:57N 32°02' E 031°38'6 0.4
2018-Jun-09 22:38N 32°06' E 031°33'0 0.5
2018-Jun-09 22:27N 32°06' E 031°33'27 0.9
2018-Jun-08 14:45N 31°41' E 031°47'611.0
2018-Jun-08 14:14N 31°36' E 031°47'311.1
2018-Jun-08 13:57N 31°33' E 031°46'4 9.0
2018-Jun-08 13:30N 31°29' E 031°45'  
Track history (hours):
 
Tides and Currents Weather Stations Pressure Air Temp Water Temp Dewpoint Dewpoint Depression Visibility Wind Speed Wind Dir Waves Ship Positions

Genco Loire

Last reported at 2018-Jun-16 21:29 UTC. Time now 2018-Jun-25 04:29 UTC.
Position N 31°49' E 034°36'.
Warning: this ship's position is 8 days out of date.

Length 190 m; draft 6.4 m.

Type: Cargo ship. MMSI: 538002760.

Date/timePositionNaut miles runAvg speedWind from/ knotsBaromVisibWave heightAir tempDewpointWater temp
2018-Jun-16 21:29N 31°49' E 034°36'0 0.0
2018-Jun-16 20:59N 31°49' E 034°36'0 0.1
2018-Jun-16 20:29N 31°49' E 034°36'0 0.0
2018-Jun-16 16:35N 31°49' E 034°36'0 0.1
2018-Jun-16 16:29N 31°49' E 034°36'0 0.0
2018-Jun-16 15:59N 31°49' E 034°36'0 0.0
2018-Jun-16 15:11N 31°49' E 034°36'0 0.0
2018-Jun-16 14:53N 31°49' E 034°36'0 0.3
2018-Jun-16 14:23N 31°49' E 034°36'0 0.0
2018-Jun-16 13:59N 31°49' E 034°36'0 0.1
2018-Jun-16 13:29N 31°49' E 034°36'0 0.0
2018-Jun-16 12:59N 31°49' E 034°36'0 0.0
2018-Jun-16 12:23N 31°49' E 034°36'0 0.1
2018-Jun-16 11:59N 31°49' E 034°36'0 0.0
2018-Jun-16 11:23N 31°49' E 034°36'0 0.0
2018-Jun-16 10:59N 31°49' E 034°36'0 0.0
2018-Jun-16 10:29N 31°49' E 034°36'0 0.1
2018-Jun-16 09:56N 31°49' E 034°36'0 0.0
2018-Jun-16 09:29N 31°49' E 034°36'0 0.0
2018-Jun-16 08:59N 31°49' E 034°36'0 0.0
2018-Jun-16 00:59N 31°49' E 034°36'0 0.0
2018-Jun-15 20:41N 31°49' E 034°36'0 0.0
2018-Jun-15 20:23N 31°49' E 034°36'0 0.0
2018-Jun-15 18:19N 31°49' E 034°36'0 0.0
2018-Jun-15 17:46N 31°49' E 034°36'0 0.1
2018-Jun-15 17:29N 31°49' E 034°36'0 0.0
2018-Jun-15 16:58N 31°49' E 034°36'0 0.0
2018-Jun-15 16:26N 31°49' E 034°36'0 0.0
2018-Jun-15 15:37N 31°49' E 034°36'0 0.0
2018-Jun-15 15:28N 31°49' E 034°36'0 0.0
2018-Jun-15 14:16N 31°49' E 034°36'0 0.0
2018-Jun-15 13:46N 31°49' E 034°36'0 0.0
2018-Jun-15 12:34N 31°49' E 034°36'0 0.1
2018-Jun-15 12:28N 31°49' E 034°36'0 0.0
2018-Jun-15 11:58N 31°49' E 034°36'0 0.1
2018-Jun-15 11:28N 31°49' E 034°36'0 0.0
2018-Jun-15 10:58N 31°49' E 034°36'0 0.0
2018-Jun-15 10:17N 31°49' E 034°36'0 0.0
2018-Jun-15 09:10N 31°49' E 034°36'0 0.0
2018-Jun-15 08:58N 31°49' E 034°36'0 0.0
2018-Jun-15 08:28N 31°49' E 034°36'0 0.0
2018-Jun-15 06:46N 31°49' E 034°36'2 0.1
2018-Jun-14 12:07N 31°51' E 034°37'0 0.8
2018-Jun-14 12:00N 31°51' E 034°37'0 0.2
2018-Jun-14 10:57N 31°51' E 034°37'0 0.1
2018-Jun-14 08:11N 31°52' E 034°38'0 1.8
2018-Jun-14 07:59N 31°52' E 034°38'  
2018-Jun-10 14:52N 32°12' E 031°25'1 1.1
2018-Jun-10 14:00N 32°13' E 031°24'4 4.3
2018-Jun-10 13:02N 32°09' E 031°27'011.1
2018-Jun-10 13:00N 32°09' E 031°27'611.1
2018-Jun-10 12:30N 32°06' E 031°33'610.9
2018-Jun-10 11:57N 32°02' E 031°38'6 0.4
2018-Jun-09 22:38N 32°06' E 031°33'0 0.5
2018-Jun-09 22:27N 32°06' E 031°33'27 0.9
2018-Jun-08 14:45N 31°41' E 031°47'611.0
2018-Jun-08 14:14N 31°36' E 031°47'311.1
2018-Jun-08 13:57N 31°33' E 031°46'4 9.0
2018-Jun-08 13:30N 31°29' E 031°45'  

Dump ship's entire track history